createdAt,value
2019-05-20T00:01:37.863Z,100170.59
2019-05-20T00:04:06.839Z,100178.16
2019-05-20T00:06:35.794Z,100168.99
2019-05-20T00:09:05.847Z,100165.93
2019-05-20T00:11:34.823Z,100163.53
2019-05-20T00:14:03.750Z,100161.69
2019-05-20T00:16:32.619Z,100160.06
2019-05-20T00:19:01.516Z,100157.59
2019-05-20T00:21:30.429Z,100153.64
2019-05-20T00:23:59.327Z,100158.44
2019-05-20T00:26:28.250Z,100156.55
2019-05-20T00:28:57.166Z,100153.45
2019-05-20T00:31:26.125Z,100146.91
2019-05-20T00:33:55.007Z,100154.81
2019-05-20T00:36:23.917Z,100152.05
2019-05-20T00:39:18.085Z,100155.66
2019-05-20T00:41:46.982Z,100155.81
2019-05-20T00:44:15.947Z,100159.39
2019-05-20T00:46:44.859Z,100149.16
2019-05-20T00:49:13.766Z,100152.23
2019-05-20T00:51:42.678Z,100149.13
2019-05-20T00:54:11.559Z,100149.50
2019-05-20T00:56:40.475Z,100147.88
2019-05-20T00:59:09.449Z,100149.02
2019-05-20T01:01:38.363Z,100148.55
2019-05-20T01:04:07.329Z,100151.98
2019-05-20T01:06:36.233Z,100150.72
2019-05-20T01:09:07.463Z,100147.47
2019-05-20T01:11:36.392Z,100141.82
2019-05-20T01:14:05.708Z,100149.34
2019-05-20T01:16:34.599Z,100142.85
2019-05-20T01:19:03.540Z,100144.37
2019-05-20T01:21:32.470Z,100148.80
2019-05-20T01:24:01.389Z,100141.30
2019-05-20T01:26:30.281Z,100133.30
2019-05-20T01:28:59.197Z,100132.27
2019-05-20T01:31:28.121Z,100130.60
2019-05-20T01:33:57.055Z,100136.46
2019-05-20T01:36:25.953Z,100131.60
2019-05-20T01:38:54.851Z,100136.20
2019-05-20T01:41:23.852Z,100135.03
2019-05-20T01:43:52.744Z,100137.42
2019-05-20T01:46:21.660Z,100142.08
2019-05-20T01:48:50.550Z,100138.16
2019-05-20T01:51:19.463Z,100139.64
2019-05-20T01:53:48.391Z,100145.59
2019-05-20T01:56:17.303Z,100146.47
2019-05-20T01:58:46.200Z,100147.53
2019-05-20T02:01:15.121Z,100141.22
2019-05-20T02:03:44.045Z,100142.89
2019-05-20T02:06:13.002Z,100139.38
2019-05-20T02:08:41.929Z,100148.05
2019-05-20T02:11:10.822Z,100152.66
2019-05-20T02:13:57.185Z,100154.58
2019-05-20T02:16:26.464Z,100143.23
2019-05-20T02:18:55.374Z,100146.80
2019-05-20T02:21:24.257Z,100143.98
2019-05-20T02:23:53.197Z,100140.26
2019-05-20T02:26:22.142Z,100141.63
2019-05-20T02:28:51.065Z,100137.45
2019-05-20T02:31:20.009Z,100141.79
2019-05-20T02:33:52.249Z,100139.42
2019-05-20T02:36:17.830Z,100147.37
2019-05-20T02:38:46.738Z,100144.64
2019-05-20T02:41:15.641Z,100145.27
2019-05-20T02:43:44.584Z,100143.91
2019-05-20T02:46:13.487Z,100140.39
2019-05-20T02:48:42.431Z,100140.12
2019-05-20T02:51:11.334Z,100145.85
2019-05-20T02:53:40.240Z,100149.67
2019-05-20T02:56:09.125Z,100152.09
2019-05-20T02:58:38.043Z,100157.37
2019-05-20T03:01:07.069Z,100150.97
2019-05-20T03:03:35.932Z,100147.25
2019-05-20T03:06:04.862Z,100147.48
2019-05-20T03:08:33.796Z,100151.48
2019-05-20T03:11:02.777Z,100161.78
2019-05-20T03:13:31.634Z,100154.92
2019-05-20T03:16:00.546Z,100153.94
2019-05-20T03:18:29.454Z,100156.00
2019-05-20T03:20:58.357Z,100161.19
2019-05-20T03:23:27.271Z,100162.16
2019-05-20T03:25:56.202Z,100161.88
2019-05-20T03:28:25.118Z,100167.95
2019-05-20T03:30:54.061Z,100167.61
2019-05-20T03:33:22.959Z,100173.46
2019-05-20T03:35:51.881Z,100173.82
2019-05-20T03:38:20.773Z,100176.89
2019-05-20T03:40:49.755Z,100179.20
2019-05-20T03:43:18.595Z,100184.04
2019-05-20T03:45:47.533Z,100178.25
2019-05-20T03:48:16.408Z,100183.94
2019-05-20T03:50:45.327Z,100190.34
2019-05-20T03:53:14.235Z,100185.61
2019-05-20T03:55:43.998Z,100193.59
2019-05-20T03:58:13.832Z,100199.72
2019-05-20T04:00:43.171Z,100201.20
2019-05-20T04:03:12.097Z,100203.75
2019-05-20T04:05:41.022Z,100206.45
2019-05-20T04:08:09.930Z,100197.01
2019-05-20T04:10:38.866Z,100201.00
2019-05-20T04:13:07.868Z,100195.11
2019-05-20T04:15:36.772Z,100193.28
2019-05-20T04:18:05.714Z,100194.95
2019-05-20T04:20:34.619Z,100191.53
2019-05-20T04:23:03.608Z,100193.41
2019-05-20T04:25:32.537Z,100196.47
2019-05-20T04:28:01.424Z,100193.23
2019-05-20T04:30:30.338Z,100196.85
2019-05-20T04:32:59.252Z,100190.03
2019-05-20T04:35:28.172Z,100193.82
2019-05-20T04:37:57.071Z,100194.03
2019-05-20T04:40:25.996Z,100193.92
2019-05-20T04:42:54.907Z,100191.71
2019-05-20T04:45:23.823Z,100195.47
2019-05-20T04:47:52.732Z,100200.05
2019-05-20T04:50:21.648Z,100205.94
2019-05-20T04:52:50.533Z,100196.02
2019-05-20T04:55:19.425Z,100198.62
2019-05-20T04:57:48.351Z,100196.80
2019-05-20T05:00:20.139Z,100197.26
2019-05-20T05:02:49.048Z,100192.83
2019-05-20T05:05:17.989Z,100198.02
2019-05-20T05:07:46.929Z,100197.83
2019-05-20T05:10:15.842Z,100196.13
2019-05-20T05:12:44.750Z,100188.22
2019-05-20T05:15:13.668Z,100183.95
2019-05-20T05:17:42.581Z,100182.24
2019-05-20T05:20:18.221Z,100192.28
2019-05-20T05:22:40.438Z,100197.41
2019-05-20T05:25:09.499Z,100202.89
2019-05-20T05:27:38.410Z,100202.36
2019-05-20T05:30:07.608Z,100205.61
2019-05-20T05:32:42.951Z,100205.70
2019-05-20T05:35:13.059Z,100204.06
2019-05-20T05:37:41.977Z,100206.45
2019-05-20T05:40:10.918Z,100211.92
2019-05-20T05:42:39.827Z,100211.49
2019-05-20T05:45:08.927Z,100207.18
2019-05-20T05:47:37.847Z,100208.06
2019-05-20T05:50:06.992Z,100209.42
2019-05-20T05:52:35.854Z,100213.80
2019-05-20T05:55:04.861Z,100211.43
2019-05-20T05:57:33.760Z,100200.56
2019-05-20T06:00:02.721Z,100206.48
2019-05-20T06:02:31.610Z,100204.20
2019-05-20T06:05:00.515Z,100201.80
2019-05-20T06:07:29.449Z,100209.85
2019-05-20T06:09:58.344Z,100217.67
2019-05-20T06:12:27.280Z,100220.71
2019-05-20T06:14:56.179Z,100220.89
2019-05-20T06:17:25.097Z,100225.44
2019-05-20T06:19:54.002Z,100219.56
2019-05-20T06:22:22.915Z,100223.30
2019-05-20T06:24:51.853Z,100218.83
2019-05-20T06:27:20.710Z,100219.28
2019-05-20T06:29:49.604Z,100218.55
2019-05-20T06:32:18.520Z,100227.42
2019-05-20T06:34:47.421Z,100225.50
2019-05-20T06:37:16.335Z,100227.72
2019-05-20T06:39:45.242Z,100224.28
2019-05-20T06:42:14.128Z,100220.88
2019-05-20T06:44:52.174Z,100226.50
2019-05-20T06:47:11.935Z,100232.66
2019-05-20T06:49:40.845Z,100230.45
2019-05-20T06:52:09.890Z,100236.84
2019-05-20T06:54:38.821Z,100239.87
2019-05-20T06:57:07.937Z,100245.30
2019-05-20T06:59:36.793Z,100249.55
2019-05-20T07:02:05.814Z,100243.21
2019-05-20T07:04:34.710Z,100233.05
2019-05-20T07:07:12.443Z,100225.29
2019-05-20T07:09:32.589Z,100225.76
2019-05-20T07:12:01.499Z,100226.33
2019-05-20T07:14:30.473Z,100227.78
2019-05-20T07:17:00.428Z,100224.38
2019-05-20T07:19:29.355Z,100233.13
2019-05-20T07:21:58.334Z,100228.03
2019-05-20T07:24:27.201Z,100221.05
2019-05-20T07:26:56.107Z,100230.81
2019-05-20T07:29:25.050Z,100226.98
2019-05-20T07:31:53.944Z,100235.77
2019-05-20T07:34:22.874Z,100239.76
2019-05-20T07:37:02.493Z,100245.87
2019-05-20T07:39:20.693Z,100242.42
2019-05-20T07:41:49.566Z,100244.91
2019-05-20T07:44:18.459Z,100244.31
2019-05-20T07:46:47.382Z,100246.94
2019-05-20T07:49:16.398Z,100250.49
2019-05-20T07:51:45.734Z,100247.33
2019-05-20T07:54:14.531Z,100252.85
2019-05-20T07:56:43.431Z,100251.16
2019-05-20T07:59:12.364Z,100256.05
2019-05-20T08:01:41.295Z,100262.76
2019-05-20T08:04:10.199Z,100264.52
2019-05-20T08:06:39.094Z,100270.72
2019-05-20T08:09:08.214Z,100267.71
2019-05-20T08:11:37.102Z,100273.75
2019-05-20T08:14:06.254Z,100272.62
2019-05-20T08:16:35.148Z,100274.94
2019-05-20T08:19:04.198Z,100280.42
2019-05-20T08:21:33.114Z,100280.23
2019-05-20T08:24:02.439Z,100282.25
2019-05-20T08:26:30.949Z,100282.83
2019-05-20T08:28:59.835Z,100279.23
2019-05-20T08:31:28.772Z,100283.67
2019-05-20T08:33:57.710Z,100279.12
2019-05-20T08:36:26.600Z,100279.18
2019-05-20T08:38:55.498Z,100275.97
2019-05-20T08:41:24.463Z,100280.67
2019-05-20T08:43:53.406Z,100280.48
2019-05-20T08:46:22.291Z,100277.33
2019-05-20T08:48:51.230Z,100279.55
2019-05-20T08:51:20.254Z,100283.77
2019-05-20T08:53:49.163Z,100277.23
2019-05-20T08:56:18.237Z,100278.98
2019-05-20T08:58:47.257Z,100279.98
2019-05-20T09:01:16.220Z,100290.38
2019-05-20T09:03:45.112Z,100288.59
2019-05-20T09:06:14.049Z,100295.02
2019-05-20T09:08:44.476Z,100292.17
2019-05-20T09:11:13.323Z,100293.12
2019-05-20T09:13:42.254Z,100292.80
2019-05-20T09:16:12.733Z,100294.30
2019-05-20T09:18:41.632Z,100299.67
2019-05-20T09:21:10.821Z,100296.71
2019-05-20T09:23:39.621Z,100301.05
2019-05-20T09:26:08.528Z,100303.89
2019-05-20T09:28:37.450Z,100306.28
2019-05-20T09:31:06.612Z,100308.59
2019-05-20T09:33:35.887Z,100309.45
2019-05-20T09:36:04.867Z,100304.08
2019-05-20T09:38:36.901Z,100305.25
2019-05-20T09:41:03.087Z,100303.67
2019-05-20T09:43:32.138Z,100305.58
2019-05-20T09:46:07.840Z,100298.73
2019-05-20T09:48:30.080Z,100303.15
2019-05-20T09:50:59.113Z,100303.89
2019-05-20T09:53:28.050Z,100307.00
2019-05-20T09:55:56.971Z,100304.86
2019-05-20T09:58:25.899Z,100308.13
2019-05-20T10:00:54.799Z,100311.25
2019-05-20T10:03:23.713Z,100306.66
2019-05-20T10:05:52.604Z,100311.95
2019-05-20T10:08:36.147Z,100308.51
2019-05-20T10:10:50.477Z,100312.68
2019-05-20T10:13:19.384Z,100316.55
2019-05-20T10:15:48.298Z,100315.52
2019-05-20T10:18:35.631Z,100316.80
2019-05-20T10:20:46.101Z,100313.55
2019-05-20T10:23:15.985Z,100310.07
2019-05-20T10:25:43.904Z,100313.66
2019-05-20T10:28:12.845Z,100319.06
2019-05-20T10:30:41.974Z,100318.84
2019-05-20T10:33:11.081Z,100318.69
2019-05-20T10:35:39.708Z,100312.14
2019-05-20T10:38:08.690Z,100307.91
2019-05-20T10:40:37.852Z,100303.71
2019-05-20T10:43:07.080Z,100305.92
2019-05-20T10:45:36.000Z,100308.39
2019-05-20T10:48:08.594Z,100308.67
2019-05-20T10:50:34.249Z,100319.72
2019-05-20T10:53:03.159Z,100317.02
2019-05-20T10:55:32.204Z,100321.26
2019-05-20T10:58:00.994Z,100326.22
2019-05-20T11:00:29.895Z,100331.89
2019-05-20T11:02:58.808Z,100336.39
2019-05-20T11:05:27.718Z,100330.25
2019-05-20T11:07:56.870Z,100333.50
2019-05-20T11:10:26.088Z,100322.91
2019-05-20T11:12:55.200Z,100322.84
2019-05-20T11:15:24.725Z,100320.42
2019-05-20T11:17:53.942Z,100323.12
2019-05-20T11:20:25.517Z,100327.73
2019-05-20T11:22:54.787Z,100327.33
2019-05-20T11:25:23.882Z,100339.63
2019-05-20T11:27:53.073Z,100344.61
2019-05-20T11:30:22.060Z,100350.42
2019-05-20T11:32:51.005Z,100336.91
2019-05-20T11:35:19.877Z,100338.39
2019-05-20T11:37:48.760Z,100344.01
2019-05-20T11:40:17.651Z,100345.25
2019-05-20T11:42:46.577Z,100348.00
2019-05-20T11:45:15.482Z,100351.17
2019-05-20T11:47:44.531Z,100355.52
2019-05-20T11:50:13.430Z,100353.38
2019-05-20T11:52:42.346Z,100362.46
2019-05-20T11:55:11.257Z,100359.00
2019-05-20T11:57:40.186Z,100361.84
2019-05-20T12:00:09.169Z,100357.40
2019-05-20T12:02:38.111Z,100354.23
2019-05-20T12:05:07.411Z,100362.20
2019-05-20T12:07:36.288Z,100362.59
2019-05-20T12:10:05.879Z,100363.05
2019-05-20T12:12:34.764Z,100365.33
2019-05-20T12:15:04.960Z,100368.20
2019-05-20T12:17:32.874Z,100367.58
2019-05-20T12:20:02.040Z,100367.52
2019-05-20T12:22:35.411Z,100364.41
2019-05-20T12:25:04.681Z,100371.47
2019-05-20T12:27:33.609Z,100364.94
2019-05-20T12:30:02.536Z,100373.27
2019-05-20T12:32:31.580Z,100375.48
2019-05-20T12:35:00.464Z,100373.59
2019-05-20T12:37:29.365Z,100372.29
2019-05-20T12:40:06.919Z,100367.22
2019-05-20T12:42:27.358Z,100365.14
2019-05-20T12:44:56.290Z,100364.55
2019-05-20T12:47:25.200Z,100364.04
2019-05-20T12:49:54.129Z,100367.06
2019-05-20T12:52:23.031Z,100360.67
2019-05-20T12:55:07.274Z,100368.39
2019-05-20T12:57:20.837Z,100373.52
2019-05-20T12:59:49.743Z,100361.48
2019-05-20T13:02:18.634Z,100363.13
2019-05-20T13:04:47.536Z,100358.73
2019-05-20T13:07:16.431Z,100364.12
2019-05-20T13:09:45.334Z,100360.50
2019-05-20T13:12:14.243Z,100354.36
2019-05-20T13:14:43.152Z,100353.85
2019-05-20T13:17:12.088Z,100357.15
2019-05-20T13:19:40.988Z,100356.91
2019-05-20T13:22:09.954Z,100358.70
2019-05-20T13:24:38.857Z,100351.74
2019-05-20T13:27:07.901Z,100357.77
2019-05-20T13:29:36.757Z,100351.95
2019-05-20T13:32:05.912Z,100357.23
2019-05-20T13:34:34.779Z,100352.79
2019-05-20T13:37:03.692Z,100350.94
2019-05-20T13:39:32.599Z,100349.31
2019-05-20T13:42:01.485Z,100349.60
2019-05-20T13:44:30.447Z,100349.59
2019-05-20T13:46:59.314Z,100347.23
2019-05-20T13:49:28.228Z,100341.97
2019-05-20T13:51:57.153Z,100352.42
2019-05-20T13:54:26.198Z,100346.67
2019-05-20T13:56:54.950Z,100347.23
2019-05-20T13:59:23.853Z,100347.12
2019-05-20T14:01:52.739Z,100346.88
2019-05-20T14:04:21.687Z,100346.70
2019-05-20T14:06:50.558Z,100346.45
2019-05-20T14:09:19.468Z,100344.22
2019-05-20T14:11:48.372Z,100359.27
2019-05-20T14:14:17.285Z,100361.21
2019-05-20T14:16:46.168Z,100356.34
2019-05-20T14:19:15.087Z,100359.55
2019-05-20T14:21:43.966Z,100364.67
2019-05-20T14:24:12.849Z,100364.53
2019-05-20T14:26:41.751Z,100368.66
2019-05-20T14:29:10.677Z,100367.45
2019-05-20T14:31:39.617Z,100375.50
2019-05-20T14:34:08.664Z,100371.77
2019-05-20T14:36:39.883Z,100380.94
2019-05-20T14:39:06.943Z,100380.95
2019-05-20T14:41:35.886Z,100383.77
2019-05-20T14:44:04.810Z,100386.97
2019-05-20T14:46:33.706Z,100380.19
2019-05-20T14:49:02.944Z,100382.39
2019-05-20T14:51:31.540Z,100390.84
2019-05-20T14:54:00.440Z,100389.92
2019-05-20T14:56:29.367Z,100383.45
2019-05-20T14:58:58.258Z,100383.86
2019-05-20T15:01:27.156Z,100391.38
2019-05-20T15:03:56.037Z,100388.83
2019-05-20T15:06:24.963Z,100385.87
2019-05-20T15:08:53.905Z,100386.95
2019-05-20T15:11:37.172Z,100386.20
2019-05-20T15:13:51.736Z,100387.28
2019-05-20T15:16:20.669Z,100388.21
2019-05-20T15:18:49.573Z,100386.92
2019-05-20T15:21:18.771Z,100385.99
2019-05-20T15:23:47.369Z,100387.13
2019-05-20T15:26:16.255Z,100388.63
2019-05-20T15:28:45.158Z,100387.57
2019-05-20T15:31:14.062Z,100389.67
2019-05-20T15:33:42.965Z,100385.02
2019-05-20T15:36:11.878Z,100374.32
2019-05-20T15:38:40.809Z,100390.03
2019-05-20T15:41:09.716Z,100386.92
2019-05-20T15:43:38.601Z,100380.26
2019-05-20T15:46:07.663Z,100382.80
2019-05-20T15:48:36.545Z,100380.70
2019-05-20T15:51:05.462Z,100377.06
2019-05-20T15:53:34.353Z,100378.48
2019-05-20T15:56:03.362Z,100378.20
2019-05-20T15:58:32.223Z,100374.25
2019-05-20T16:01:01.122Z,100368.05
2019-05-20T16:03:30.005Z,100381.06
2019-05-20T16:05:59.973Z,100361.52
2019-05-20T16:08:27.830Z,100366.31
2019-05-20T16:10:56.740Z,100364.59
2019-05-20T16:13:25.638Z,100366.48
2019-05-20T16:15:54.541Z,100357.77
2019-05-20T16:18:23.435Z,100367.05
2019-05-20T16:20:52.331Z,100367.45
2019-05-20T16:23:21.229Z,100367.09
2019-05-20T16:25:50.133Z,100362.00
2019-05-20T16:28:19.018Z,100364.81
2019-05-20T16:30:47.928Z,100362.89
2019-05-20T16:33:16.811Z,100368.01
2019-05-20T16:35:45.726Z,100363.47
2019-05-20T16:38:14.627Z,100369.34
2019-05-20T16:40:43.565Z,100365.00
2019-05-20T16:43:12.488Z,100368.20
2019-05-20T16:45:41.387Z,100360.17
2019-05-20T16:48:10.325Z,100358.12
2019-05-20T16:50:39.213Z,100365.79
2019-05-20T16:53:08.177Z,100364.58
2019-05-20T16:55:37.094Z,100373.49
2019-05-20T16:58:06.156Z,100367.16
2019-05-20T17:00:35.057Z,100366.17
2019-05-20T17:03:03.970Z,100374.14
2019-05-20T17:05:32.969Z,100368.79
2019-05-20T17:08:01.785Z,100371.80
2019-05-20T17:10:30.699Z,100374.25
2019-05-20T17:12:59.613Z,100377.91
2019-05-20T17:15:28.515Z,100377.52
2019-05-20T17:17:57.409Z,100389.58
2019-05-20T17:20:26.313Z,100386.33
2019-05-20T17:22:55.199Z,100390.91
2019-05-20T17:25:24.149Z,100387.92
2019-05-20T17:27:53.011Z,100389.35
2019-05-20T17:30:21.891Z,100395.34
2019-05-20T17:32:50.790Z,100401.62
2019-05-20T17:35:19.691Z,100403.95
2019-05-20T17:37:48.565Z,100407.11
2019-05-20T17:40:17.479Z,100402.99
2019-05-20T17:42:46.352Z,100409.61
2019-05-20T17:45:15.264Z,100401.95
2019-05-20T17:47:44.147Z,100404.67
2019-05-20T17:50:13.067Z,100407.48
2019-05-20T17:52:41.947Z,100406.13
2019-05-20T17:55:10.826Z,100413.17
2019-05-20T17:57:39.764Z,100413.80
2019-05-20T18:00:08.755Z,100415.23
2019-05-20T18:02:37.667Z,100413.91
2019-05-20T18:05:06.764Z,100415.54
2019-05-20T18:07:35.673Z,100420.27
2019-05-20T18:10:04.968Z,100418.16
2019-05-20T18:12:33.852Z,100424.45
2019-05-20T18:15:03.496Z,100429.92
2019-05-20T18:17:32.401Z,100434.31
2019-05-20T18:20:01.330Z,100437.89
2019-05-20T18:22:30.216Z,100445.07
2019-05-20T18:24:59.139Z,100451.27
2019-05-20T18:27:28.037Z,100454.70
2019-05-20T18:29:56.948Z,100451.03
2019-05-20T18:32:25.864Z,100456.35
2019-05-20T18:34:54.777Z,100451.82
2019-05-20T18:37:23.708Z,100447.59
2019-05-20T18:39:52.605Z,100445.89
2019-05-20T18:42:21.511Z,100461.45
2019-05-20T18:44:50.434Z,100460.23
2019-05-20T18:47:19.359Z,100461.03
2019-05-20T18:49:48.242Z,100468.28
2019-05-20T18:52:17.169Z,100472.08
2019-05-20T18:54:46.086Z,100464.30
2019-05-20T18:57:15.002Z,100455.60
2019-05-20T18:59:43.902Z,100458.83
2019-05-20T19:02:12.807Z,100473.86
2019-05-20T19:04:41.772Z,100474.44
2019-05-20T19:07:10.685Z,100473.77
2019-05-20T19:09:39.571Z,100475.92
2019-05-20T19:12:08.578Z,100470.35
2019-05-20T19:14:37.469Z,100465.84
2019-05-20T19:17:06.494Z,100470.77
2019-05-20T19:19:35.392Z,100471.11
2019-05-20T19:22:04.332Z,100474.02
2019-05-20T19:24:33.310Z,100474.56
2019-05-20T19:27:02.190Z,100471.49
2019-05-20T19:29:31.044Z,100475.84
2019-05-20T19:32:02.157Z,100478.45
2019-05-20T19:34:28.877Z,100474.14
2019-05-20T19:36:57.767Z,100469.42
2019-05-20T19:39:26.680Z,100470.81
2019-05-20T19:41:55.602Z,100472.05
2019-05-20T19:44:24.538Z,100475.46
2019-05-20T19:46:53.431Z,100482.84
2019-05-20T19:49:22.325Z,100484.09
2019-05-20T19:51:51.247Z,100487.45
2019-05-20T19:54:20.134Z,100487.34
2019-05-20T19:56:49.061Z,100490.64
2019-05-20T19:59:17.976Z,100490.64
2019-05-20T20:01:46.871Z,100490.44
2019-05-20T20:04:15.794Z,100491.94
2019-05-20T20:06:44.687Z,100495.02
2019-05-20T20:09:13.597Z,100495.02
2019-05-20T20:11:42.480Z,100499.45
2019-05-20T20:14:11.460Z,100494.19
2019-05-20T20:16:40.287Z,100502.26
2019-05-20T20:19:09.333Z,100509.11
2019-05-20T20:21:38.259Z,100515.26
2019-05-20T20:24:09.428Z,100518.71
2019-05-20T20:26:36.113Z,100525.89
2019-05-20T20:29:05.129Z,100524.41
2019-05-20T20:31:34.019Z,100531.30
2019-05-20T20:34:02.897Z,100534.87
2019-05-20T20:36:31.815Z,100535.94
2019-05-20T20:39:00.708Z,100538.48
2019-05-20T20:41:29.611Z,100537.63
2019-05-20T20:43:58.529Z,100537.28
2019-05-20T20:46:27.446Z,100537.11
2019-05-20T20:48:56.328Z,100540.30
2019-05-20T20:51:25.228Z,100543.45
2019-05-20T20:53:54.152Z,100540.91
2019-05-20T20:56:25.431Z,100540.05
2019-05-20T20:58:51.987Z,100544.62
2019-05-20T21:01:20.940Z,100542.95
2019-05-20T21:03:49.857Z,100545.17
2019-05-20T21:06:18.765Z,100541.63
2019-05-20T21:08:47.732Z,100548.07
2019-05-20T21:11:16.637Z,100544.19
2019-05-20T21:13:45.572Z,100542.65
2019-05-20T21:16:14.448Z,100543.09
2019-05-20T21:18:43.384Z,100553.73
2019-05-20T21:21:12.273Z,100553.91
2019-05-20T21:23:41.177Z,100555.27
2019-05-20T21:26:10.195Z,100560.22
2019-05-20T21:28:39.075Z,100559.02
2019-05-20T21:31:08.033Z,100548.14
2019-05-20T21:33:36.923Z,100555.30
2019-05-20T21:36:05.872Z,100552.75
2019-05-20T21:38:34.787Z,100555.64
2019-05-20T21:41:03.681Z,100553.28
2019-05-20T21:43:32.600Z,100558.58
2019-05-20T21:46:01.494Z,100551.06
2019-05-20T21:48:30.413Z,100551.09
2019-05-20T21:50:59.319Z,100559.27
2019-05-20T21:53:28.235Z,100553.84
2019-05-20T21:55:57.129Z,100560.83
2019-05-20T21:58:26.052Z,100558.09
2019-05-20T22:00:55.258Z,100559.13
2019-05-20T22:03:25.265Z,100556.41
2019-05-20T22:05:53.094Z,100563.55
2019-05-20T22:08:21.990Z,100565.27
2019-05-20T22:10:50.962Z,100558.11
2019-05-20T22:13:19.815Z,100561.34
2019-05-20T22:15:48.764Z,100554.55
2019-05-20T22:18:17.651Z,100548.73
2019-05-20T22:20:46.574Z,100554.37
2019-05-20T22:23:49.632Z,100554.72
2019-05-20T22:26:18.561Z,100547.39
2019-05-20T22:28:47.477Z,100542.96
2019-05-20T22:31:16.402Z,100533.61
2019-05-20T22:33:45.281Z,100536.82
2019-05-20T22:36:14.216Z,100534.28
2019-05-20T22:38:43.120Z,100529.33
2019-05-20T22:41:12.080Z,100537.19
2019-05-20T22:43:40.960Z,100532.91
2019-05-20T22:46:09.908Z,100534.45
2019-05-20T22:48:38.820Z,100538.72
2019-05-20T22:51:07.826Z,100525.59
2019-05-20T22:53:36.729Z,100526.13
2019-05-20T22:56:05.649Z,100522.72
2019-05-20T22:58:38.262Z,100519.81
2019-05-20T23:01:03.457Z,100529.00
2019-05-20T23:03:32.369Z,100527.81
2019-05-20T23:06:01.287Z,100528.97
2019-05-20T23:08:30.175Z,100533.91
2019-05-20T23:10:59.090Z,100532.41
2019-05-20T23:13:27.970Z,100533.09
2019-05-20T23:15:56.891Z,100534.63
2019-05-20T23:18:25.810Z,100541.80
2019-05-20T23:20:54.728Z,100540.60
2019-05-20T23:23:23.674Z,100540.94
2019-05-20T23:25:53.100Z,100549.26
2019-05-20T23:28:21.437Z,100545.31
2019-05-20T23:30:50.339Z,100535.48
2019-05-20T23:33:19.269Z,100538.38
2019-05-20T23:35:48.176Z,100545.89
2019-05-20T23:38:17.164Z,100537.70
2019-05-20T23:40:45.985Z,100542.80
2019-05-20T23:43:14.899Z,100539.75
2019-05-20T23:45:43.976Z,100546.56
2019-05-20T23:48:12.883Z,100554.20
2019-05-20T23:50:41.798Z,100565.25
2019-05-20T23:53:10.799Z,100562.02
2019-05-20T23:55:39.629Z,100561.86
2019-05-20T23:58:08.572Z,100557.44
